sensor_id;sensor_type;location;lat;lon;timestamp;temperature;humidity
41437;DHT22;27178;49.460;10.850;2023-11-19T00:00:19;9.30;93.60
41437;DHT22;27178;49.460;10.850;2023-11-19T00:02:50;9.30;93.70
41437;DHT22;27178;49.460;10.850;2023-11-19T00:05:18;9.30;93.70
41437;DHT22;27178;49.460;10.850;2023-11-19T00:07:47;9.40;93.80
41437;DHT22;27178;49.460;10.850;2023-11-19T00:10:16;10.80;94.30
41437;DHT22;27178;49.460;10.850;2023-11-19T00:12:49;9.30;93.90
41437;DHT22;27178;49.460;10.850;2023-11-19T00:15:18;9.30;94.00
41437;DHT22;27178;49.460;10.850;2023-11-19T00:17:47;9.30;94.00
41437;DHT22;27178;49.460;10.850;2023-11-19T00:20:17;9.30;94.00
41437;DHT22;27178;49.460;10.850;2023-11-19T00:22:47;9.30;94.10
41437;DHT22;27178;49.460;10.850;2023-11-19T00:25:18;9.30;94.10
41437;DHT22;27178;49.460;10.850;2023-11-19T00:27:48;9.30;94.20
41437;DHT22;27178;49.460;10.850;2023-11-19T00:30:17;9.30;94.30
41437;DHT22;27178;49.460;10.850;2023-11-19T00:32:46;9.40;94.30
41437;DHT22;27178;49.460;10.850;2023-11-19T00:35:14;9.40;94.40
41437;DHT22;27178;49.460;10.850;2023-11-19T00:37:43;9.30;94.40
41437;DHT22;27178;49.460;10.850;2023-11-19T00:40:13;9.40;94.50
41437;DHT22;27178;49.460;10.850;2023-11-19T00:42:43;9.30;94.50
41437;DHT22;27178;49.460;10.850;2023-11-19T00:45:13;9.40;94.70
41437;DHT22;27178;49.460;10.850;2023-11-19T00:47:41;9.40;94.70
41437;DHT22;27178;49.460;10.850;2023-11-19T00:50:10;9.40;94.60
41437;DHT22;27178;49.460;10.850;2023-11-19T00:52:40;9.40;94.80
41437;DHT22;27178;49.460;10.850;2023-11-19T00:55:09;9.40;94.70
41437;DHT22;27178;49.460;10.850;2023-11-19T00:57:38;9.40;94.80
41437;DHT22;27178;49.460;10.850;2023-11-19T01:00:07;9.40;94.90
41437;DHT22;27178;49.460;10.850;2023-11-19T01:02:48;9.40;95.10
41437;DHT22;27178;49.460;10.850;2023-11-19T01:05:19;9.40;95.00
41437;DHT22;27178;49.460;10.850;2023-11-19T01:07:50;9.40;95.10
41437;DHT22;27178;49.460;10.850;2023-11-19T01:10:21;9.40;95.20
41437;DHT22;27178;49.460;10.850;2023-11-19T01:12:50;9.40;95.20
41437;DHT22;27178;49.460;10.850;2023-11-19T01:15:19;9.40;95.30
41437;DHT22;27178;49.460;10.850;2023-11-19T01:17:48;9.40;95.30
41437;DHT22;27178;49.460;10.850;2023-11-19T01:20:20;9.40;95.20
41437;DHT22;27178;49.460;10.850;2023-11-19T01:22:48;9.40;95.30
41437;DHT22;27178;49.460;10.850;2023-11-19T01:25:17;9.40;95.40
41437;DHT22;27178;49.460;10.850;2023-11-19T01:27:46;9.40;95.50
41437;DHT22;27178;49.460;10.850;2023-11-19T01:30:14;9.40;95.60
41437;DHT22;27178;49.460;10.850;2023-11-19T01:32:43;9.40;95.60
41437;DHT22;27178;49.460;10.850;2023-11-19T01:35:13;9.40;95.70
41437;DHT22;27178;49.460;10.850;2023-11-19T01:37:41;9.40;95.80
41437;DHT22;27178;49.460;10.850;2023-11-19T01:40:11;9.50;95.80
41437;DHT22;27178;49.460;10.850;2023-11-19T01:42:39;9.40;95.90
41437;DHT22;27178;49.460;10.850;2023-11-19T01:45:08;9.40;95.90
41437;DHT22;27178;49.460;10.850;2023-11-19T01:47:37;9.50;96.00
41437;DHT22;27178;49.460;10.850;2023-11-19T01:50:08;9.40;96.00
41437;DHT22;27178;49.460;10.850;2023-11-19T01:52:38;9.50;96.10
41437;DHT22;27178;49.460;10.850;2023-11-19T01:55:08;9.50;96.20
41437;DHT22;27178;49.460;10.850;2023-11-19T01:57:37;9.50;96.30
41437;DHT22;27178;49.460;10.850;2023-11-19T02:00:09;9.50;96.30
41437;DHT22;27178;49.460;10.850;2023-11-19T02:02:39;9.50;96.30
41437;DHT22;27178;49.460;10.850;2023-11-19T02:05:09;10.70;96.70
41437;DHT22;27178;49.460;10.850;2023-11-19T02:07:40;9.00;96.20
41437;DHT22;27178;49.460;10.850;2023-11-19T02:10:08;7.30;95.70
41437;DHT22;27178;49.460;10.850;2023-11-19T02:12:42;9.50;96.50
41437;DHT22;27178;49.460;10.850;2023-11-19T02:15:11;9.50;96.50
41437;DHT22;27178;49.460;10.850;2023-11-19T02:17:40;9.50;96.50
41437;DHT22;27178;49.460;10.850;2023-11-19T02:20:09;9.50;96.50
41437;DHT22;27178;49.460;10.850;2023-11-19T02:22:40;9.50;96.60
41437;DHT22;27178;49.460;10.850;2023-11-19T02:25:19;9.50;96.60
41437;DHT22;27178;49.460;10.850;2023-11-19T02:27:53;9.50;96.70
41437;DHT22;27178;49.460;10.850;2023-11-19T02:30:24;9.50;96.90
41437;DHT22;27178;49.460;10.850;2023-11-19T02:32:54;9.60;97.10
41437;DHT22;27178;49.460;10.850;2023-11-19T02:35:24;9.60;97.50
41437;DHT22;27178;49.460;10.850;2023-11-19T02:37:54;9.60;97.70
41437;DHT22;27178;49.460;10.850;2023-11-19T02:40:22;9.50;98.00
41437;DHT22;27178;49.460;10.850;2023-11-19T02:42:53;9.60;98.20
41437;DHT22;27178;49.460;10.850;2023-11-19T02:45:22;9.60;98.40
41437;DHT22;27178;49.460;10.850;2023-11-19T02:47:52;9.60;98.60
41437;DHT22;27178;49.460;10.850;2023-11-19T02:50:22;9.60;98.70
41437;DHT22;27178;49.460;10.850;2023-11-19T02:52:54;9.60;98.90
41437;DHT22;27178;49.460;10.850;2023-11-19T02:55:24;9.60;98.90
41437;DHT22;27178;49.460;10.850;2023-11-19T02:57:56;9.60;99.00
41437;DHT22;27178;49.460;10.850;2023-11-19T03:00:26;9.60;99.10
41437;DHT22;27178;49.460;10.850;2023-11-19T03:03:02;9.60;99.20
41437;DHT22;27178;49.460;10.850;2023-11-19T03:05:46;9.60;99.20
41437;DHT22;27178;49.460;10.850;2023-11-19T03:08:15;9.60;99.30
41437;DHT22;27178;49.460;10.850;2023-11-19T03:10:46;9.60;99.40
41437;DHT22;27178;49.460;10.850;2023-11-19T03:13:16;9.60;99.40
41437;DHT22;27178;49.460;10.850;2023-11-19T03:15:45;9.60;99.60
41437;DHT22;27178;49.460;10.850;2023-11-19T03:18:14;9.60;99.50
41437;DHT22;27178;49.460;10.850;2023-11-19T03:20:42;9.60;99.60
41437;DHT22;27178;49.460;10.850;2023-11-19T03:23:11;9.60;99.70
41437;DHT22;27178;49.460;10.850;2023-11-19T03:25:39;9.60;99.80
41437;DHT22;27178;49.460;10.850;2023-11-19T03:28:08;9.60;99.90
41437;DHT22;27178;49.460;10.850;2023-11-19T03:30:39;9.60;99.90
41437;DHT22;27178;49.460;10.850;2023-11-19T03:33:07;9.60;99.90
41437;DHT22;27178;49.460;10.850;2023-11-19T03:35:36;9.70;99.90
41437;DHT22;27178;49.460;10.850;2023-11-19T03:38:04;9.70;99.90
41437;DHT22;27178;49.460;10.850;2023-11-19T03:40:33;9.70;99.90
41437;DHT22;27178;49.460;10.850;2023-11-19T03:43:01;9.70;99.90
41437;DHT22;27178;49.460;10.850;2023-11-19T03:45:31;9.70;99.90
41437;DHT22;27178;49.460;10.850;2023-11-19T03:48:01;9.70;99.90
41437;DHT22;27178;49.460;10.850;2023-11-19T03:50:29;9.70;99.90
41437;DHT22;27178;49.460;10.850;2023-11-19T03:52:57;9.70;99.90
41437;DHT22;27178;49.460;10.850;2023-11-19T03:55:26;9.70;99.90
41437;DHT22;27178;49.460;10.850;2023-11-19T03:57:53;9.70;99.90
41437;DHT22;27178;49.460;10.850;2023-11-19T04:00:22;9.70;99.90
41437;DHT22;27178;49.460;10.850;2023-11-19T04:02:51;9.70;99.90
41437;DHT22;27178;49.460;10.850;2023-11-19T04:05:21;9.80;99.90
41437;DHT22;27178;49.460;10.850;2023-11-19T04:07:49;9.80;99.90
41437;DHT22;27178;49.460;10.850;2023-11-19T04:10:18;9.80;99.90
41437;DHT22;27178;49.460;10.850;2023-11-19T04:12:47;9.80;99.90
41437;DHT22;27178;49.460;10.850;2023-11-19T04:15:16;9.80;99.90
41437;DHT22;27178;49.460;10.850;2023-11-19T04:17:44;9.80;99.90
41437;DHT22;27178;49.460;10.850;2023-11-19T04:20:13;9.80;99.90
41437;DHT22;27178;49.460;10.850;2023-11-19T04:22:43;9.80;99.90
41437;DHT22;27178;49.460;10.850;2023-11-19T04:25:11;9.90;99.90
41437;DHT22;27178;49.460;10.850;2023-11-19T04:27:41;9.80;99.90
41437;DHT22;27178;49.460;10.850;2023-11-19T04:30:12;9.90;99.90
41437;DHT22;27178;49.460;10.850;2023-11-19T04:32:41;9.90;99.90
41437;DHT22;27178;49.460;10.850;2023-11-19T04:35:11;9.90;99.90
41437;DHT22;27178;49.460;10.850;2023-11-19T04:37:39;9.90;99.90
41437;DHT22;27178;49.460;10.850;2023-11-19T04:40:09;10.00;99.90
41437;DHT22;27178;49.460;10.850;2023-11-19T04:42:39;10.00;99.90
41437;DHT22;27178;49.460;10.850;2023-11-19T04:45:08;10.00;99.90
41437;DHT22;27178;49.460;10.850;2023-11-19T04:47:37;10.00;99.90
41437;DHT22;27178;49.460;10.850;2023-11-19T04:50:06;10.00;99.90
41437;DHT22;27178;49.460;10.850;2023-11-19T04:52:38;10.10;99.90
41437;DHT22;27178;49.460;10.850;2023-11-19T04:55:10;10.10;99.90
41437;DHT22;27178;49.460;10.850;2023-11-19T04:57:40;10.10;99.90
41437;DHT22;27178;49.460;10.850;2023-11-19T05:00:09;10.10;99.90
41437;DHT22;27178;49.460;10.850;2023-11-19T05:02:41;10.10;99.90
41437;DHT22;27178;49.460;10.850;2023-11-19T05:05:10;10.20;99.90
41437;DHT22;27178;49.460;10.850;2023-11-19T05:07:39;10.20;99.90
41437;DHT22;27178;49.460;10.850;2023-11-19T05:10:08;10.20;99.90
41437;DHT22;27178;49.460;10.850;2023-11-19T05:12:38;10.30;99.90
41437;DHT22;27178;49.460;10.850;2023-11-19T05:15:09;10.30;99.90
41437;DHT22;27178;49.460;10.850;2023-11-19T05:17:39;10.40;99.90
41437;DHT22;27178;49.460;10.850;2023-11-19T05:20:08;10.40;99.90
41437;DHT22;27178;49.460;10.850;2023-11-19T05:22:41;10.40;99.90
41437;DHT22;27178;49.460;10.850;2023-11-19T05:25:10;10.50;99.90
41437;DHT22;27178;49.460;10.850;2023-11-19T05:27:40;10.50;99.90
41437;DHT22;27178;49.460;10.850;2023-11-19T05:30:09;10.50;99.90
41437;DHT22;27178;49.460;10.850;2023-11-19T05:32:38;10.60;99.90
41437;DHT22;27178;49.460;10.850;2023-11-19T05:35:07;10.60;99.90
41437;DHT22;27178;49.460;10.850;2023-11-19T05:37:36;10.60;99.90
41437;DHT22;27178;49.460;10.850;2023-11-19T05:40:06;10.70;99.90
41437;DHT22;27178;49.460;10.850;2023-11-19T05:42:43;10.70;99.90
41437;DHT22;27178;49.460;10.850;2023-11-19T05:45:12;10.70;99.90
41437;DHT22;27178;49.460;10.850;2023-11-19T05:47:41;10.70;99.90
41437;DHT22;27178;49.460;10.850;2023-11-19T05:50:10;10.80;99.90
41437;DHT22;27178;49.460;10.850;2023-11-19T05:52:38;10.80;99.90
41437;DHT22;27178;49.460;10.850;2023-11-19T05:55:07;10.90;99.90
41437;DHT22;27178;49.460;10.850;2023-11-19T05:57:38;10.90;99.90
41437;DHT22;27178;49.460;10.850;2023-11-19T06:00:11;10.90;99.90
41437;DHT22;27178;49.460;10.850;2023-11-19T06:02:43;11.00;99.90
41437;DHT22;27178;49.460;10.850;2023-11-19T06:05:12;11.00;99.90
41437;DHT22;27178;49.460;10.850;2023-11-19T06:07:40;11.00;99.90
41437;DHT22;27178;49.460;10.850;2023-11-19T06:10:09;11.10;99.90
41437;DHT22;27178;49.460;10.850;2023-11-19T06:12:38;11.10;99.90
41437;DHT22;27178;49.460;10.850;2023-11-19T06:15:10;11.10;99.90
41437;DHT22;27178;49.460;10.850;2023-11-19T06:17:38;11.20;99.90
41437;DHT22;27178;49.460;10.850;2023-11-19T06:20:08;11.20;99.90
41437;DHT22;27178;49.460;10.850;2023-11-19T06:22:39;11.20;99.90
41437;DHT22;27178;49.460;10.850;2023-11-19T06:25:09;11.30;99.90
41437;DHT22;27178;49.460;10.850;2023-11-19T06:27:39;11.30;99.90
41437;DHT22;27178;49.460;10.850;2023-11-19T06:30:08;11.30;99.90
41437;DHT22;27178;49.460;10.850;2023-11-19T06:32:38;11.40;99.90
41437;DHT22;27178;49.460;10.850;2023-11-19T06:35:07;11.40;99.90
41437;DHT22;27178;49.460;10.850;2023-11-19T06:37:39;11.40;99.90
41437;DHT22;27178;49.460;10.850;2023-11-19T06:40:12;11.40;99.90
41437;DHT22;27178;49.460;10.850;2023-11-19T06:42:43;11.50;99.90
41437;DHT22;27178;49.460;10.850;2023-11-19T06:45:12;11.50;99.90
41437;DHT22;27178;49.460;10.850;2023-11-19T06:47:42;11.50;99.90
41437;DHT22;27178;49.460;10.850;2023-11-19T06:50:10;11.50;99.90
41437;DHT22;27178;49.460;10.850;2023-11-19T06:52:39;11.60;99.90
41437;DHT22;27178;49.460;10.850;2023-11-19T06:55:08;11.60;99.90
41437;DHT22;27178;49.460;10.850;2023-11-19T06:57:36;11.60;99.90
41437;DHT22;27178;49.460;10.850;2023-11-19T07:00:06;11.60;99.90
41437;DHT22;27178;49.460;10.850;2023-11-19T07:02:36;11.70;99.90
41437;DHT22;27178;49.460;10.850;2023-11-19T07:05:06;11.70;99.90
41437;DHT22;27178;49.460;10.850;2023-11-19T07:07:35;11.70;99.90
41437;DHT22;27178;49.460;10.850;2023-11-19T07:10:04;11.80;99.90
41437;DHT22;27178;49.460;10.850;2023-11-19T07:12:36;11.80;99.90
41437;DHT22;27178;49.460;10.850;2023-11-19T07:15:06;11.80;99.90
41437;DHT22;27178;49.460;10.850;2023-11-19T07:17:35;11.80;99.90
41437;DHT22;27178;49.460;10.850;2023-11-19T07:20:05;11.80;99.90
41437;DHT22;27178;49.460;10.850;2023-11-19T07:22:34;11.80;99.90
41437;DHT22;27178;49.460;10.850;2023-11-19T07:25:05;11.80;99.90
41437;DHT22;27178;49.460;10.850;2023-11-19T07:27:34;11.90;99.90
41437;DHT22;27178;49.460;10.850;2023-11-19T07:30:03;11.90;99.90
41437;DHT22;27178;49.460;10.850;2023-11-19T07:32:32;11.90;99.90
41437;DHT22;27178;49.460;10.850;2023-11-19T07:35:01;11.90;99.90
41437;DHT22;27178;49.460;10.850;2023-11-19T07:37:30;11.90;99.90
41437;DHT22;27178;49.460;10.850;2023-11-19T07:39:58;11.90;99.90
41437;DHT22;27178;49.460;10.850;2023-11-19T07:42:27;12.00;99.90
41437;DHT22;27178;49.460;10.850;2023-11-19T07:44:55;12.00;99.90
41437;DHT22;27178;49.460;10.850;2023-11-19T07:47:24;12.00;99.90
41437;DHT22;27178;49.460;10.850;2023-11-19T07:49:52;12.10;99.90
41437;DHT22;27178;49.460;10.850;2023-11-19T07:52:21;12.10;99.90
41437;DHT22;27178;49.460;10.850;2023-11-19T07:54:50;12.10;99.90
41437;DHT22;27178;49.460;10.850;2023-11-19T07:57:18;12.10;99.90
41437;DHT22;27178;49.460;10.850;2023-11-19T07:59:47;12.10;99.90
41437;DHT22;27178;49.460;10.850;2023-11-19T08:02:16;12.10;99.90
41437;DHT22;27178;49.460;10.850;2023-11-19T08:04:45;12.20;99.90
41437;DHT22;27178;49.460;10.850;2023-11-19T08:07:14;12.20;99.90
41437;DHT22;27178;49.460;10.850;2023-11-19T08:09:43;12.30;99.90
41437;DHT22;27178;49.460;10.850;2023-11-19T08:12:12;12.20;99.90
41437;DHT22;27178;49.460;10.850;2023-11-19T08:14:42;12.30;99.90
41437;DHT22;27178;49.460;10.850;2023-11-19T08:17:11;12.30;99.90
41437;DHT22;27178;49.460;10.850;2023-11-19T08:19:39;12.30;99.90
41437;DHT22;27178;49.460;10.850;2023-11-19T08:22:07;12.30;99.90
41437;DHT22;27178;49.460;10.850;2023-11-19T08:24:36;12.40;99.90
41437;DHT22;27178;49.460;10.850;2023-11-19T08:27:05;12.40;99.90
41437;DHT22;27178;49.460;10.850;2023-11-19T08:29:35;12.50;99.90
41437;DHT22;27178;49.460;10.850;2023-11-19T08:32:04;12.50;99.90
41437;DHT22;27178;49.460;10.850;2023-11-19T08:34:33;12.50;99.90
41437;DHT22;27178;49.460;10.850;2023-11-19T08:37:02;12.60;99.90
41437;DHT22;27178;49.460;10.850;2023-11-19T08:39:30;12.60;99.90
41437;DHT22;27178;49.460;10.850;2023-11-19T08:41:58;12.60;99.90
41437;DHT22;27178;49.460;10.850;2023-11-19T08:44:27;12.70;99.90
41437;DHT22;27178;49.460;10.850;2023-11-19T08:46:57;12.70;99.90
41437;DHT22;27178;49.460;10.850;2023-11-19T08:49:25;12.70;99.90
41437;DHT22;27178;49.460;10.850;2023-11-19T08:51:54;12.80;99.90
41437;DHT22;27178;49.460;10.850;2023-11-19T08:54:22;12.80;99.90
41437;DHT22;27178;49.460;10.850;2023-11-19T08:56:51;12.80;99.90
41437;DHT22;27178;49.460;10.850;2023-11-19T08:59:19;12.90;99.90
41437;DHT22;27178;49.460;10.850;2023-11-19T09:01:49;12.90;99.90
41437;DHT22;27178;49.460;10.850;2023-11-19T09:04:18;12.90;99.90
41437;DHT22;27178;49.460;10.850;2023-11-19T09:06:50;13.00;99.90
41437;DHT22;27178;49.460;10.850;2023-11-19T09:09:18;13.00;99.90
41437;DHT22;27178;49.460;10.850;2023-11-19T09:11:47;13.10;99.90
41437;DHT22;27178;49.460;10.850;2023-11-19T09:14:16;13.10;99.90
41437;DHT22;27178;49.460;10.850;2023-11-19T09:16:45;13.10;99.90
41437;DHT22;27178;49.460;10.850;2023-11-19T09:19:13;13.20;99.90
41437;DHT22;27178;49.460;10.850;2023-11-19T09:21:43;13.20;99.90
41437;DHT22;27178;49.460;10.850;2023-11-19T09:24:12;13.20;99.90
41437;DHT22;27178;49.460;10.850;2023-11-19T09:26:42;13.20;99.90
41437;DHT22;27178;49.460;10.850;2023-11-19T09:29:11;13.20;99.90
41437;DHT22;27178;49.460;10.850;2023-11-19T09:31:41;13.30;99.90
41437;DHT22;27178;49.460;10.850;2023-11-19T09:34:09;13.30;99.90
41437;DHT22;27178;49.460;10.850;2023-11-19T09:36:38;13.30;99.90
41437;DHT22;27178;49.460;10.850;2023-11-19T09:39:12;13.30;99.90
41437;DHT22;27178;49.460;10.850;2023-11-19T09:41:42;13.40;99.90
41437;DHT22;27178;49.460;10.850;2023-11-19T09:44:12;13.40;99.90
41437;DHT22;27178;49.460;10.850;2023-11-19T09:46:41;13.40;99.90
41437;DHT22;27178;49.460;10.850;2023-11-19T09:49:10;13.40;99.90
41437;DHT22;27178;49.460;10.850;2023-11-19T09:51:40;13.40;99.90
